createdAt,value
2019-05-07T00:00:38.358Z,9.10
2019-05-07T00:03:08.823Z,8.90
2019-05-07T00:05:38.402Z,9.00
2019-05-07T00:08:07.940Z,9.00
2019-05-07T00:10:37.411Z,9.00
2019-05-07T00:13:06.843Z,9.00
2019-05-07T00:15:36.257Z,9.10
2019-05-07T00:18:05.713Z,9.10
2019-05-07T00:20:35.146Z,9.00
2019-05-07T00:23:04.571Z,9.00
2019-05-07T00:25:34.123Z,9.00
2019-05-07T00:28:03.567Z,9.00
2019-05-07T00:30:33.280Z,9.00
2019-05-07T00:33:03.006Z,9.10
2019-05-07T00:38:13.159Z,8.90
2019-05-07T00:43:26.723Z,9.00
2019-05-07T00:50:57.359Z,8.90
2019-05-07T00:54:15.930Z,8.90
2019-05-07T00:56:45.382Z,8.80
2019-05-07T00:59:14.848Z,8.80
2019-05-07T01:04:13.310Z,8.90
2019-05-07T01:06:42.669Z,9.00
2019-05-07T01:09:12.472Z,9.00
2019-05-07T01:11:42.890Z,8.80
2019-05-07T01:14:12.671Z,8.80
2019-05-07T01:16:42.233Z,8.80
2019-05-07T01:19:12.591Z,8.80
2019-05-07T01:21:43.279Z,8.70
2019-05-07T01:24:12.986Z,8.60
2019-05-07T01:26:42.686Z,8.60
2019-05-07T01:29:12.848Z,8.60
2019-05-07T01:31:44.515Z,8.50
2019-05-07T01:34:15.495Z,8.50
2019-05-07T01:36:44.956Z,8.50
2019-05-07T01:39:14.327Z,8.50
2019-05-07T01:41:44.042Z,8.30
2019-05-07T01:44:13.508Z,8.40
2019-05-07T01:46:42.959Z,8.30
2019-05-07T01:49:12.686Z,8.30
2019-05-07T01:51:42.410Z,8.40
2019-05-07T01:59:12.627Z,8.50
2019-05-07T02:01:42.900Z,8.60
2019-05-07T02:04:22.294Z,8.40
2019-05-07T02:07:12.325Z,8.30
2019-05-07T02:09:43.387Z,8.20
2019-05-07T02:12:17.400Z,8.20
2019-05-07T02:14:46.780Z,8.20
2019-05-07T02:17:16.076Z,8.00
2019-05-07T02:19:45.496Z,7.90
2019-05-07T02:22:14.956Z,7.90
2019-05-07T02:24:44.366Z,8.00
2019-05-07T02:27:13.843Z,8.00
2019-05-07T02:29:43.280Z,7.90
2019-05-07T02:32:13.461Z,7.90
2019-05-07T02:37:15.484Z,8.00
2019-05-07T02:39:53.084Z,8.00
2019-05-07T02:42:23.912Z,7.90
2019-05-07T02:45:13.154Z,7.90
2019-05-07T02:47:43.746Z,7.90
2019-05-07T02:52:57.892Z,7.60
2019-05-07T02:55:28.912Z,7.60
2019-05-07T02:57:58.352Z,7.60
2019-05-07T03:00:27.937Z,7.50
2019-05-07T03:02:57.542Z,7.40
2019-05-07T03:05:27.052Z,7.40
2019-05-07T03:07:56.457Z,7.40
2019-05-07T03:10:25.996Z,7.40
2019-05-07T03:12:55.458Z,7.30
2019-05-07T03:15:24.975Z,7.30
2019-05-07T03:20:24.908Z,7.30
2019-05-07T03:22:55.503Z,8.80
2019-05-07T03:25:26.596Z,7.30
2019-05-07T03:27:56.173Z,7.20
2019-05-07T03:30:45.710Z,7.20
2019-05-07T03:33:25.576Z,7.30
2019-05-07T03:35:56.234Z,7.20
2019-05-07T03:38:24.398Z,7.30
2019-05-07T03:40:54.000Z,7.20
2019-05-07T03:43:25.246Z,7.10
2019-05-07T03:48:27.135Z,7.10
2019-05-07T03:50:56.728Z,7.10
2019-05-07T03:53:26.306Z,7.10
2019-05-07T03:55:55.737Z,7.10
2019-05-07T03:58:25.198Z,6.90
2019-05-07T04:00:54.715Z,7.00
2019-05-07T04:03:24.727Z,7.10
2019-05-07T04:05:55.700Z,6.90
2019-05-07T04:08:25.187Z,7.00
2019-05-07T04:10:54.517Z,6.90
2019-05-07T04:13:24.452Z,7.00
2019-05-07T04:15:54.239Z,7.10
2019-05-07T04:18:24.077Z,6.90
2019-05-07T04:23:24.807Z,6.80
2019-05-07T04:28:43.400Z,6.70
2019-05-07T04:31:14.088Z,6.90
2019-05-07T04:33:43.904Z,7.00
2019-05-07T04:36:16.381Z,7.00
2019-05-07T04:41:15.100Z,7.10
2019-05-07T04:43:44.690Z,7.40
2019-05-07T04:48:44.324Z,7.20
2019-05-07T04:56:14.143Z,7.70
2019-05-07T05:01:15.315Z,7.80
2019-05-07T05:06:13.933Z,7.90
2019-05-07T05:08:43.761Z,8.00
2019-05-07T05:11:13.246Z,7.90
2019-05-07T05:13:44.538Z,8.10
2019-05-07T05:16:23.776Z,8.10
2019-05-07T05:18:53.884Z,8.20
2019-05-07T05:21:41.942Z,8.20
2019-05-07T05:24:22.248Z,8.30
2019-05-07T05:26:52.539Z,8.30
2019-05-07T05:29:22.742Z,8.10
2019-05-07T05:31:53.277Z,8.20
2019-05-07T05:34:22.731Z,8.30
2019-05-07T05:36:53.201Z,8.50
2019-05-07T05:40:05.544Z,8.60
2019-05-07T05:44:53.844Z,8.70
2019-05-07T05:47:23.383Z,8.70
2019-05-07T05:49:53.379Z,8.70
2019-05-07T05:52:33.291Z,8.80
2019-05-07T05:57:35.930Z,9.00
2019-05-07T06:00:26.509Z,9.10
2019-05-07T06:03:11.828Z,9.10
2019-05-07T06:05:55.397Z,9.10
2019-05-07T06:08:29.312Z,9.30
2019-05-07T06:12:13.585Z,9.40
2019-05-07T06:14:44.618Z,9.30
2019-05-07T06:17:18.380Z,9.50
2019-05-07T06:20:02.944Z,9.30
2019-05-07T06:22:44.059Z,9.60
2019-05-07T06:25:15.441Z,9.60
2019-05-07T06:27:44.951Z,9.50
2019-05-07T06:33:38.157Z,9.70
2019-05-07T06:38:39.461Z,9.70
2019-05-07T06:41:26.574Z,9.90
2019-05-07T06:43:57.561Z,9.90
2019-05-07T06:46:26.871Z,9.90
2019-05-07T06:48:56.307Z,9.90
2019-05-07T06:51:25.834Z,10.10
2019-05-07T06:53:55.226Z,10.10
2019-05-07T06:56:24.542Z,10.20
2019-05-07T06:59:04.574Z,10.10
2019-05-07T07:01:42.303Z,10.20
2019-05-07T07:04:13.407Z,10.30
2019-05-07T07:06:52.430Z,10.30
2019-05-07T07:12:06.394Z,10.30
2019-05-07T07:14:35.795Z,10.30
2019-05-07T07:17:05.247Z,10.30
2019-05-07T07:22:22.332Z,10.20
2019-05-07T07:24:53.100Z,10.10
2019-05-07T07:27:22.853Z,9.90
2019-05-07T07:29:54.132Z,9.80
2019-05-07T07:32:31.751Z,10.10
2019-05-07T07:37:36.191Z,10.00
2019-05-07T07:42:36.312Z,9.90
2019-05-07T07:45:16.502Z,10.00
2019-05-07T07:47:46.689Z,10.00
2019-05-07T07:50:16.336Z,10.10
2019-05-07T07:57:08.679Z,10.50
2019-05-07T08:02:28.566Z,10.60
2019-05-07T08:07:49.885Z,10.60
2019-05-07T08:10:19.351Z,10.70
2019-05-07T08:12:48.735Z,10.80
2019-05-07T08:15:21.823Z,10.70
2019-05-07T08:17:49.526Z,10.70
2019-05-07T08:20:19.511Z,10.70
2019-05-07T08:22:48.936Z,11.00
2019-05-07T08:25:18.288Z,11.40
2019-05-07T08:31:19.509Z,11.70
2019-05-07T08:34:06.868Z,11.80
2019-05-07T08:36:36.243Z,12.00
2019-05-07T08:39:06.968Z,12.30
2019-05-07T08:41:36.348Z,12.40
2019-05-07T08:44:15.526Z,12.50
2019-05-07T08:46:57.926Z,12.50
2019-05-07T08:49:37.041Z,12.60
2019-05-07T08:52:03.616Z,12.90
2019-05-07T08:54:32.296Z,13.00
2019-05-07T08:57:02.053Z,13.30
2019-05-07T08:59:32.511Z,13.70
2019-05-07T09:02:03.237Z,13.50
2019-05-07T09:04:33.046Z,13.50
2019-05-07T09:07:02.862Z,13.50
2019-05-07T09:16:03.043Z,13.10
2019-05-07T09:18:32.387Z,13.10
2019-05-07T09:21:02.165Z,13.30
2019-05-07T09:23:32.022Z,13.40
2019-05-07T09:26:02.773Z,13.40
2019-05-07T09:28:33.799Z,13.50
2019-05-07T09:36:09.461Z,13.90
2019-05-07T09:38:39.067Z,14.10
2019-05-07T09:41:12.068Z,14.20
2019-05-07T09:46:12.565Z,14.40
2019-05-07T09:48:42.031Z,14.50
2019-05-07T09:54:27.608Z,15.20
2019-05-07T09:56:57.042Z,15.20
2019-05-07T10:01:55.575Z,15.40
2019-05-07T10:04:24.941Z,15.40
2019-05-07T10:06:54.292Z,15.80
2019-05-07T10:09:23.700Z,15.80
2019-05-07T10:12:02.737Z,15.70
2019-05-07T10:14:33.351Z,15.90
2019-05-07T10:17:11.905Z,16.00
2019-05-07T10:19:44.213Z,16.10
2019-05-07T10:22:13.631Z,16.30
2019-05-07T10:24:42.998Z,16.50
2019-05-07T10:32:33.692Z,16.10
2019-05-07T10:35:04.702Z,16.20
2019-05-07T10:37:34.237Z,16.00
2019-05-07T10:40:06.013Z,16.00
2019-05-07T10:42:35.656Z,15.90
2019-05-07T10:50:40.063Z,15.70
2019-05-07T10:53:09.355Z,17.20
2019-05-07T10:55:38.689Z,16.00
2019-05-07T10:58:08.063Z,16.10
2019-05-07T11:00:37.407Z,15.80
2019-05-07T11:03:08.411Z,16.30
2019-05-07T11:05:37.761Z,16.90
2019-05-07T11:08:07.199Z,17.20
2019-05-07T11:10:36.599Z,17.30
2019-05-07T11:15:35.186Z,17.80
2019-05-07T11:18:06.283Z,18.00
2019-05-07T11:20:46.410Z,17.70
2019-05-07T11:38:26.538Z,18.20
2019-05-07T11:42:45.225Z,18.30
2019-05-07T11:45:16.292Z,18.20
2019-05-07T11:47:45.760Z,19.00
2019-05-07T11:50:22.684Z,18.90
2019-05-07T11:54:32.295Z,19.10
2019-05-07T11:58:27.728Z,19.70
2019-05-07T12:02:27.662Z,19.20
2019-05-07T12:06:27.971Z,19.00
2019-05-07T12:11:26.274Z,18.90
2019-05-07T12:13:57.341Z,18.80
2019-05-07T12:18:29.061Z,19.50
2019-05-07T12:20:58.474Z,19.70
2019-05-07T12:23:27.782Z,19.90
2019-05-07T12:25:57.199Z,20.40
2019-05-07T12:28:26.606Z,21.00
2019-05-07T12:32:51.994Z,20.70
2019-05-07T12:35:21.951Z,21.80
2019-05-07T12:37:51.359Z,21.70
2019-05-07T12:40:22.428Z,21.60
2019-05-07T12:42:52.449Z,22.00
2019-05-07T12:45:22.831Z,22.20
2019-05-07T12:47:52.945Z,21.40
2019-05-07T12:50:22.530Z,21.00
2019-05-07T12:54:17.478Z,21.30
2019-05-07T12:56:46.950Z,20.40
2019-05-07T12:59:16.335Z,20.30
2019-05-07T13:01:47.397Z,20.10
2019-05-07T13:04:18.381Z,20.10
2019-05-07T13:06:52.443Z,20.40
2019-05-07T13:09:22.068Z,21.10
2019-05-07T13:11:52.598Z,21.30
2019-05-07T13:14:22.515Z,21.80
2019-05-07T13:16:52.345Z,21.90
2019-05-07T13:19:22.630Z,21.10
2019-05-07T13:21:52.267Z,21.10
2019-05-07T13:24:22.828Z,20.80
2019-05-07T13:26:53.947Z,21.10
2019-05-07T13:29:23.363Z,21.20
2019-05-07T13:31:54.175Z,21.20
2019-05-07T13:34:24.084Z,20.60
2019-05-07T13:36:55.092Z,20.30
2019-05-07T13:41:47.585Z,20.10
2019-05-07T13:44:27.635Z,19.90
2019-05-07T13:47:15.249Z,19.90
2019-05-07T13:49:45.090Z,20.90
2019-05-07T13:52:14.444Z,20.90
2019-05-07T13:55:16.069Z,20.70
2019-05-07T13:57:45.531Z,20.80
2019-05-07T14:00:17.113Z,20.60
2019-05-07T14:02:46.455Z,20.90
2019-05-07T14:05:15.843Z,20.50
2019-05-07T14:10:32.087Z,20.00
2019-05-07T14:15:14.622Z,19.70
2019-05-07T14:17:44.092Z,19.90
2019-05-07T14:20:14.576Z,20.20
2019-05-07T14:25:13.091Z,19.30
2019-05-07T14:27:42.918Z,19.30
2019-05-07T14:30:12.958Z,19.20
2019-05-07T14:32:52.449Z,18.80
2019-05-07T14:35:23.129Z,18.30
2019-05-07T14:40:14.440Z,18.10
2019-05-07T14:42:48.752Z,18.00
2019-05-07T14:45:19.301Z,18.20
2019-05-07T14:47:52.119Z,18.10
2019-05-07T14:50:22.594Z,18.00
2019-05-07T14:52:55.268Z,18.00
2019-05-07T14:55:23.545Z,17.90
2019-05-07T14:57:52.943Z,17.70
2019-05-07T15:00:22.676Z,17.40
2019-05-07T15:02:52.485Z,17.70
2019-05-07T15:05:22.451Z,18.10
2019-05-07T15:07:51.916Z,18.00
2019-05-07T15:10:22.226Z,17.90
2019-05-07T15:12:52.178Z,18.10
2019-05-07T15:15:22.043Z,18.30
2019-05-07T15:17:58.994Z,18.30
2019-05-07T15:22:54.945Z,18.70
2019-05-07T15:27:15.868Z,19.00
2019-05-07T15:30:26.684Z,18.90
2019-05-07T15:32:56.364Z,19.40
2019-05-07T15:36:06.763Z,20.00
2019-05-07T15:38:36.155Z,20.20
2019-05-07T15:41:05.496Z,19.90
2019-05-07T15:43:35.983Z,19.90
2019-05-07T15:46:05.335Z,20.30
2019-05-07T15:48:34.860Z,20.20
2019-05-07T15:51:07.524Z,20.10
2019-05-07T15:53:38.576Z,19.80
2019-05-07T15:56:07.992Z,19.90
2019-05-07T15:58:38.663Z,20.10
2019-05-07T16:01:08.131Z,20.10
2019-05-07T16:03:39.148Z,20.20
2019-05-07T16:29:04.375Z,22.70
2019-05-07T16:31:33.226Z,22.70
2019-05-07T16:34:02.682Z,21.70
2019-05-07T16:36:32.853Z,21.00
2019-05-07T16:41:01.879Z,19.20
2019-05-07T16:43:31.318Z,19.00
2019-05-07T16:46:02.433Z,18.30
2019-05-07T16:48:32.761Z,18.00
2019-05-07T16:51:03.189Z,17.80
2019-05-07T16:53:35.063Z,17.80
2019-05-07T16:56:04.622Z,17.90
2019-05-07T16:58:35.673Z,18.00
2019-05-07T17:01:06.722Z,18.20
2019-05-07T17:03:42.693Z,17.90
2019-05-07T17:06:13.161Z,18.00
2019-05-07T17:08:51.681Z,17.80
2019-05-07T17:11:22.610Z,17.30
2019-05-07T17:13:52.820Z,17.30
2019-05-07T17:16:22.845Z,17.20
2019-05-07T17:18:54.225Z,17.10
2019-05-07T17:21:33.488Z,16.90
2019-05-07T17:24:11.938Z,16.80
2019-05-07T17:26:42.730Z,16.70
2019-05-07T18:06:52.047Z,15.90
2019-05-07T18:11:26.243Z,15.70
2019-05-07T18:13:55.631Z,15.60
2019-05-07T18:16:26.638Z,15.40
2019-05-07T18:18:56.595Z,15.40
2019-05-07T18:22:40.091Z,15.20
2019-05-07T18:25:13.236Z,15.10
2019-05-07T18:27:47.211Z,15.00
2019-05-07T18:30:22.057Z,14.80
2019-05-07T18:32:52.625Z,14.70
2019-05-07T18:35:23.127Z,14.40
2019-05-07T18:37:52.824Z,14.30
2019-05-07T18:40:22.908Z,14.30
2019-05-07T18:42:52.588Z,14.30
2019-05-07T18:45:22.231Z,14.20
2019-05-07T18:47:51.767Z,14.10
2019-05-07T18:50:22.886Z,13.90
2019-05-07T18:52:53.228Z,13.80
2019-05-07T18:55:22.831Z,13.80
2019-05-07T18:57:52.608Z,13.70
2019-05-07T19:00:32.558Z,13.60
2019-05-07T19:03:03.575Z,13.40
2019-05-07T19:05:33.062Z,13.40
2019-05-07T19:08:07.810Z,13.30
2019-05-07T19:10:33.477Z,13.30
2019-05-07T19:13:02.839Z,13.20
2019-05-07T19:15:32.877Z,13.10
2019-05-07T19:18:02.739Z,13.00
2019-05-07T19:20:33.292Z,12.90
2019-05-07T19:23:02.862Z,12.70
2019-05-07T19:25:32.759Z,12.60
2019-05-07T19:28:02.215Z,12.60
2019-05-07T19:30:32.596Z,12.50
2019-05-07T19:33:02.283Z,12.30
2019-05-07T19:35:32.759Z,12.40
2019-05-07T19:38:02.882Z,12.30
2019-05-07T19:40:32.611Z,12.20
2019-05-07T19:43:02.992Z,12.00
2019-05-07T19:45:32.657Z,11.90
2019-05-07T19:48:02.862Z,11.80
2019-05-07T19:50:32.525Z,11.80
2019-05-07T19:54:42.996Z,11.70
2019-05-07T19:58:49.181Z,11.60
2019-05-07T20:01:20.182Z,11.70
2019-05-07T20:03:49.662Z,11.60
2019-05-07T20:06:42.890Z,11.60
2019-05-07T20:09:15.664Z,11.60
2019-05-07T20:11:49.156Z,11.50
2019-05-07T20:14:18.751Z,11.50
2019-05-07T20:16:48.171Z,11.40
2019-05-07T20:19:19.082Z,11.20
2019-05-07T20:21:52.255Z,11.20
2019-05-07T20:24:22.479Z,11.00
2019-05-07T20:26:52.696Z,11.10
2019-05-07T20:29:23.018Z,11.00
2019-05-07T20:31:53.283Z,11.00
2019-05-07T20:36:52.077Z,10.90
2019-05-07T20:39:23.333Z,10.90
2019-05-07T20:41:52.731Z,10.80
2019-05-07T20:44:22.195Z,10.90
2019-05-07T20:46:53.618Z,10.70
2019-05-07T20:49:22.841Z,10.70
2019-05-07T20:51:52.642Z,10.60
2019-05-07T20:54:26.436Z,10.60
2019-05-07T20:56:57.446Z,10.50
2019-05-07T20:59:26.824Z,10.60
2019-05-07T21:01:56.183Z,10.40
2019-05-07T21:06:55.080Z,10.50
2019-05-07T21:09:24.803Z,10.50
2019-05-07T21:11:54.199Z,10.30
2019-05-07T21:14:43.712Z,10.20
2019-05-07T21:19:25.715Z,10.20
2019-05-07T21:21:55.020Z,10.10
2019-05-07T21:24:24.307Z,10.20
2019-05-07T21:26:53.746Z,10.10
2019-05-07T21:30:09.612Z,10.10
2019-05-07T21:32:42.136Z,10.10
2019-05-07T21:35:11.872Z,10.00
2019-05-07T21:37:41.838Z,10.00
2019-05-07T21:40:13.047Z,10.00
2019-05-07T21:42:42.662Z,10.00
2019-05-07T21:47:41.012Z,9.80
2019-05-07T21:50:12.289Z,9.90
2019-05-07T21:52:43.017Z,9.80
2019-05-07T21:55:14.071Z,9.70
2019-05-07T21:57:45.059Z,9.60
2019-05-07T22:00:18.627Z,9.70
2019-05-07T22:02:49.783Z,9.80
2019-05-07T22:05:19.163Z,9.60
2019-05-07T22:10:17.778Z,9.50
2019-05-07T22:12:48.237Z,9.60
2019-05-07T22:15:17.648Z,9.70
2019-05-07T22:17:47.077Z,9.70
2019-05-07T22:20:16.523Z,9.80
2019-05-07T22:22:45.900Z,9.60
2019-05-07T22:25:15.216Z,9.50
2019-05-07T22:27:46.248Z,9.50
2019-05-07T22:30:17.242Z,9.50
2019-05-07T22:32:52.666Z,9.30
2019-05-07T22:35:26.305Z,9.30
2019-05-07T22:38:13.549Z,9.20
2019-05-07T22:40:44.523Z,9.30
2019-05-07T22:45:43.293Z,9.20
2019-05-07T22:48:12.690Z,9.20
2019-05-07T22:50:44.015Z,9.30
2019-05-07T22:53:13.041Z,9.20
2019-05-07T22:55:43.440Z,9.10
2019-05-07T22:58:23.443Z,9.20
2019-05-07T23:00:54.450Z,9.20
2019-05-07T23:03:23.798Z,9.20
2019-05-07T23:05:54.291Z,11.90
2019-05-07T23:08:23.644Z,9.10
2019-05-07T23:10:52.992Z,9.10
2019-05-07T23:13:22.704Z,9.10
2019-05-07T23:15:53.729Z,9.00
2019-05-07T23:18:23.039Z,9.20
2019-05-07T23:20:52.783Z,9.20
2019-05-07T23:23:22.320Z,9.10
2019-05-07T23:30:52.371Z,9.00
2019-05-07T23:33:22.646Z,9.00
2019-05-07T23:35:53.159Z,8.90
2019-05-07T23:38:22.691Z,8.70
2019-05-07T23:40:56.711Z,8.80
2019-05-07T23:43:26.051Z,8.70
2019-05-07T23:45:56.519Z,8.70
2019-05-07T23:48:25.866Z,8.80
2019-05-07T23:50:55.228Z,8.70
2019-05-07T23:53:24.647Z,8.70
2019-05-07T23:55:54.021Z,8.70
2019-05-07T23:58:23.513Z,8.20
